Time;durP1;ratioP1;P1;durP2;ratioP2;P2;SDS_P1;SDS_P2;PMS_P1;PMS_P2;Temp;Humidity;BMP_temperature;BMP_pressure;BME280_temperature;BME280_humidity;BME280_pressure;Samples;Min_cycle;Max_cycle;Signal;HPM_P1;HPM_P2
2024/04/01 00:01:00;;;;;;;;;;;;;;;23.51;41.30;91836.50;4992398;28;7141;-69
2024/04/01 00:03:50;;;;;;;;;;;;;;;23.51;41.89;91822.78;4976528;28;7633;-69
2024/04/01 00:06:17;;;;;;;;;;;;;;;23.53;41.63;91831.19;4976615;28;7100;-68
2024/04/01 00:08:45;;;;;;;;;;;;;;;23.53;41.50;91820.91;5008618;28;7101;-69
2024/04/01 00:11:12;;;;;;;;;;;;;;;23.54;41.25;91827.13;4991271;28;7058;-69
2024/04/01 00:13:53;;;;;;;;;;;;;;;23.56;41.79;91813.59;4991904;28;9098;-69
2024/04/01 00:16:41;;;;;;;;;;;;;;;23.54;41.56;91783.97;4992526;28;7409;-69
2024/04/01 00:19:17;;;;;;;;;;;;;;;23.54;41.24;91770.25;4992042;28;7262;-70
2024/04/01 00:21:52;;;;;;;;;;;;;;;23.51;41.10;91762.44;4977901;28;7319;-70
2024/04/01 00:24:34;;;;;;;;;;;;;;;23.50;41.19;91805.59;4992765;28;7399;-70
2024/04/01 00:27:02;;;;;;;;;;;;;;;23.51;41.49;91778.88;5032618;28;9330;-70
2024/04/01 00:29:33;;;;;;;;;;;;;;;23.43;40.88;91756.25;5038287;28;7283;-69
2024/04/01 00:32:03;;;;;;;;;;;;;;;23.48;40.95;91766.28;5052807;28;7031;-66
2024/04/01 00:34:32;;;;;;;;;;;;;;;23.38;41.14;91759.97;5049635;28;7126;-66
2024/04/01 00:37:05;;;;;;;;;;;;;;;23.39;41.08;91769.63;5041905;28;8767;-66
2024/04/01 00:39:33;;;;;;;;;;;;;;;23.43;41.36;91811.09;5047089;28;6990;-66
2024/04/01 00:42:07;;;;;;;;;;;;;;;23.45;41.29;91814.03;5055606;28;7336;-66
2024/04/01 00:44:37;;;;;;;;;;;;;;;23.45;40.71;91794.81;5045643;28;8914;-66
2024/04/01 00:47:19;;;;;;;;;;;;;;;23.44;41.15;91768.69;5065407;28;7210;-66
2024/04/01 00:49:50;;;;;;;;;;;;;;;23.42;40.75;91721.91;5055263;28;9752;-65
2024/04/01 00:52:37;;;;;;;;;;;;;;;23.40;40.87;91738.91;5055136;28;9405;-66
2024/04/01 00:55:04;;;;;;;;;;;;;;;23.43;40.45;91726.06;5057902;28;7163;-66
2024/04/01 00:57:30;;;;;;;;;;;;;;;23.40;41.04;91735.44;5053447;28;7299;-66
2024/04/01 00:59:58;;;;;;;;;;;;;;;23.43;40.71;91767.97;5051455;28;6997;-66
2024/04/01 01:02:29;;;;;;;;;;;;;;;23.39;40.85;91755.91;5051025;28;7027;-66
2024/04/01 01:04:57;;;;;;;;;;;;;;;23.43;40.66;91723.34;5058935;28;7021;-65
2024/04/01 01:07:37;;;;;;;;;;;;;;;23.44;40.83;91697.38;5072373;28;9292;-65
2024/04/01 01:10:37;;;;;;;;;;;;;;;23.44;40.39;91719.31;5054093;28;8975;-65
2024/04/01 01:13:16;;;;;;;;;;;;;;;23.44;40.96;91746.75;4984376;28;7635;-66
2024/04/01 01:16:08;;;;;;;;;;;;;;;23.45;40.94;91767.38;5003434;28;7045;-66
2024/04/01 01:19:08;;;;;;;;;;;;;;;23.45;40.54;91778.34;4998829;28;7211;-66
2024/04/01 01:22:05;;;;;;;;;;;;;;;23.45;40.86;91753.66;4957535;28;9389;-65
2024/04/01 01:24:45;;;;;;;;;;;;;;;23.38;40.99;91749.69;4885565;29;7050;-66
2024/04/01 01:27:19;;;;;;;;;;;;;;;23.47;40.70;91756.59;4884244;29;7027;-66
2024/04/01 01:29:45;;;;;;;;;;;;;;;23.41;40.73;91736.88;4871154;29;7161;-66
2024/04/01 01:32:13;;;;;;;;;;;;;;;23.47;40.68;91723.69;4869026;29;7033;-66
2024/04/01 01:34:39;;;;;;;;;;;;;;;23.38;40.48;91719.53;4894714;29;9519;-66
2024/04/01 01:37:06;;;;;;;;;;;;;;;23.43;40.49;91696.63;4864386;29;7637;-66
2024/04/01 01:39:34;;;;;;;;;;;;;;;23.39;40.82;91704.53;4848909;29;7497;-66
2024/04/01 01:42:01;;;;;;;;;;;;;;;23.44;40.63;91700.13;4863689;29;9003;-66
2024/04/01 01:44:31;;;;;;;;;;;;;;;23.43;40.82;91698.66;4864238;29;9085;-65
2024/04/01 01:47:05;;;;;;;;;;;;;;;23.42;40.24;91699.94;4881240;29;7024;-65
2024/04/01 01:50:11;;;;;;;;;;;;;;;23.42;40.55;91678.00;4889477;29;9424;-65
2024/04/01 01:52:50;;;;;;;;;;;;;;;23.37;40.18;91682.44;4902256;29;9529;-66
2024/04/01 01:55:37;;;;;;;;;;;;;;;23.37;40.54;91698.16;4888705;29;7231;-66
2024/04/01 01:58:03;;;;;;;;;;;;;;;23.43;40.37;91715.09;4951733;28;7290;-66
2024/04/01 02:00:42;;;;;;;;;;;;;;;23.34;40.20;91678.06;4997493;28;7011;-65
2024/04/01 02:03:18;;;;;;;;;;;;;;;23.34;40.63;91675.31;5039071;28;9962;-66
2024/04/01 02:05:44;;;;;;;;;;;;;;;23.42;40.54;91691.72;5059127;28;9133;-65
2024/04/01 02:08:17;;;;;;;;;;;;;;;23.39;40.38;91673.63;5058461;28;7678;-66
2024/04/01 02:10:56;;;;;;;;;;;;;;;23.33;40.38;91676.63;5037658;28;9260;-65
2024/04/01 02:13:53;;;;;;;;;;;;;;;23.43;40.55;91663.00;5040429;28;7084;-65
2024/04/01 02:16:45;;;;;;;;;;;;;;;23.44;40.22;91689.16;4960683;28;7035;-65
2024/04/01 02:19:11;;;;;;;;;;;;;;;23.41;40.07;91701.97;5006138;28;7149;-65
2024/04/01 02:21:40;;;;;;;;;;;;;;;23.38;40.23;91672.19;4972760;28;7010;-65
2024/04/01 02:24:09;;;;;;;;;;;;;;;23.43;40.67;91663.72;4979778;28;7297;-65
2024/04/01 02:26:38;;;;;;;;;;;;;;;23.42;40.02;91689.72;4978349;28;9143;-65
2024/04/01 02:29:07;;;;;;;;;;;;;;;23.46;40.29;91694.78;5000970;28;6932;-65
2024/04/01 02:31:35;;;;;;;;;;;;;;;23.46;40.30;91711.25;4993309;28;7042;-65
2024/04/01 02:34:02;;;;;;;;;;;;;;;23.46;40.53;91716.75;4993958;28;7030;-65
2024/04/01 02:36:42;;;;;;;;;;;;;;;23.49;40.07;91726.59;4995484;28;7116;-65
2024/04/01 02:39:55;;;;;;;;;;;;;;;23.53;40.39;91737.91;5007634;28;9438;-65
2024/04/01 02:42:33;;;;;;;;;;;;;;;23.52;40.60;91737.16;4992841;28;7061;-66
2024/04/01 02:45:01;;;;;;;;;;;;;;;23.51;39.92;91738.44;5010566;28;7283;-65
2024/04/01 02:47:29;;;;;;;;;;;;;;;23.56;40.05;91751.22;4976845;28;7767;-65
2024/04/01 02:50:14;;;;;;;;;;;;;;;23.57;40.67;91760.91;4996656;28;7270;-65
2024/04/01 02:52:59;;;;;;;;;;;;;;;23.60;40.29;91775.50;5013940;28;9632;-57
2024/04/01 02:55:29;;;;;;;;;;;;;;;23.52;40.35;91758.38;5035335;28;7572;-57
2024/04/01 02:58:26;;;;;;;;;;;;;;;23.58;40.68;91772.59;5053694;28;9099;-57
2024/04/01 03:00:52;;;;;;;;;;;;;;;23.58;40.72;91789.06;4992765;28;9392;-57
2024/04/01 03:03:22;;;;;;;;;;;;;;;23.59;40.25;91794.00;5010446;28;8917;-57
2024/04/01 03:06:02;;;;;;;;;;;;;;;23.59;40.36;91796.75;4982003;28;9145;-57
2024/04/01 03:08:39;;;;;;;;;;;;;;;23.57;40.96;91809.56;4993533;28;9178;-57
2024/04/01 03:11:10;;;;;;;;;;;;;;;23.56;40.76;91792.38;4993407;28;7031;-57
2024/04/01 03:13:36;;;;;;;;;;;;;;;23.57;40.84;91809.56;5009445;28;8597;-57
2024/04/01 03:16:13;;;;;;;;;;;;;;;23.60;40.76;91813.91;4992527;28;9060;-57
2024/04/01 03:19:08;;;;;;;;;;;;;;;23.57;40.88;91815.06;4984875;28;9132;-57
2024/04/01 03:21:43;;;;;;;;;;;;;;;23.54;40.62;91819.63;4977576;28;9016;-57
2024/04/01 03:24:26;;;;;;;;;;;;;;;23.55;41.06;91845.06;4977085;28;7246;-57
2024/04/01 03:27:04;;;;;;;;;;;;;;;23.54;40.69;91832.63;4988635;28;6870;-57
2024/04/01 03:29:30;;;;;;;;;;;;;;;23.55;40.72;91856.03;4993362;28;7211;-57
2024/04/01 03:31:55;;;;;;;;;;;;;;;23.53;40.92;91853.13;4975094;28;9054;-57
2024/04/01 03:34:21;;;;;;;;;;;;;;;23.51;40.68;91853.66;4972340;28;7312;-57
2024/04/01 03:36:51;;;;;;;;;;;;;;;23.47;41.10;91860.84;4973827;28;7014;-57
2024/04/01 03:39:20;;;;;;;;;;;;;;;23.51;40.88;91883.13;5022492;28;7299;-57
2024/04/01 03:41:46;;;;;;;;;;;;;;;23.39;40.84;91877.34;5019009;28;7096;-57
2024/04/01 03:44:13;;;;;;;;;;;;;;;23.51;40.67;91916.06;5034738;28;7032;-57
2024/04/01 03:46:52;;;;;;;;;;;;;;;23.50;41.09;91931.03;5040548;28;7079;-57
2024/04/01 03:49:54;;;;;;;;;;;;;;;23.48;40.51;91934.34;5015115;28;7030;-57
2024/04/01 03:52:31;;;;;;;;;;;;;;;23.49;40.76;91946.06;4937587;28;7066;-57
2024/04/01 03:54:59;;;;;;;;;;;;;;;23.49;41.16;91951.56;4958526;28;7135;-57
2024/04/01 03:57:24;;;;;;;;;;;;;;;23.48;41.25;91955.56;4951571;28;7250;-57
2024/04/01 04:00:01;;;;;;;;;;;;;;;23.48;40.88;91963.78;4994248;28;7324;-57
2024/04/01 04:02:28;;;;;;;;;;;;;;;23.48;41.13;91969.28;5003782;28;9144;-57
2024/04/01 04:04:59;;;;;;;;;;;;;;;23.47;41.22;91976.06;5013900;28;8596;-57
2024/04/01 04:07:34;;;;;;;;;;;;;;;23.42;41.17;91963.28;5027312;28;7600;-57
2024/04/01 04:10:06;;;;;;;;;;;;;;;23.44;41.27;91990.88;5000375;28;7248;-57
2024/04/01 04:12:41;;;;;;;;;;;;;;;23.43;41.36;92017.56;5021410;28;7042;-57
2024/04/01 04:15:37;;;;;;;;;;;;;;;23.45;41.50;92025.97;5019665;28;7282;-57
2024/04/01 04:18:20;;;;;;;;;;;;;;;23.41;41.01;92025.63;5010667;28;9035;-57
2024/04/01 04:20:47;;;;;;;;;;;;;;;23.43;41.11;92039.53;5015626;28;6895;-57
2024/04/01 04:23:24;;;;;;;;;;;;;;;23.43;41.31;92050.50;5002648;28;9160;-57
2024/04/01 04:25:53;;;;;;;;;;;;;;;23.46;41.39;92084.31;5007122;28;7055;-57
2024/04/01 04:28:23;;;;;;;;;;;;;;;23.45;41.38;92102.78;5069069;28;7364;-57
2024/04/01 04:30:49;;;;;;;;;;;;;;;23.38;41.56;92119.28;5058113;28;7064;-57
2024/04/01 04:33:17;;;;;;;;;;;;;;;23.43;41.06;92134.81;5064351;28;7041;-57
2024/04/01 04:35:43;;;;;;;;;;;;;;;23.43;41.14;92123.81;5070623;28;7045;-57
2024/04/01 04:38:22;;;;;;;;;;;;;;;23.43;41.68;92149.25;5071994;28;9946;-57
2024/04/01 04:40:53;;;;;;;;;;;;;;;23.44;41.77;92150.72;5080947;28;8752;-57
2024/04/01 04:43:23;;;;;;;;;;;;;;;23.43;41.53;92151.25;5065330;28;9224;-57
2024/04/01 04:46:02;;;;;;;;;;;;;;;23.43;41.76;92152.00;5092077;28;6994;-57
2024/04/01 04:49:06;;;;;;;;;;;;;;;23.43;41.86;92156.75;5051737;28;9173;-57
2024/04/01 04:51:33;;;;;;;;;;;;;;;23.37;42.02;92170.66;5082778;28;9336;-57
2024/04/01 04:54:09;;;;;;;;;;;;;;;23.36;41.91;92187.69;5076350;28;7033;-57
2024/04/01 04:56:51;;;;;;;;;;;;;;;23.34;41.42;92185.47;5076776;28;7034;-57
2024/04/01 04:59:44;;;;;;;;;;;;;;;23.41;41.87;92195.72;5059658;28;7414;-57
2024/04/01 05:02:48;;;;;;;;;;;;;;;23.39;41.71;92201.00;5077345;28;7026;-59
2024/04/01 05:05:30;;;;;;;;;;;;;;;23.41;41.78;92208.69;5055375;28;7070;-59
2024/04/01 05:08:30;;;;;;;;;;;;;;;23.40;41.47;92213.47;5055148;28;8670;-59
2024/04/01 05:11:09;;;;;;;;;;;;;;;23.38;41.82;92207.06;5038383;28;9043;-59
2024/04/01 05:14:04;;;;;;;;;;;;;;;23.38;41.96;92226.97;5035094;28;7427;-58
2024/04/01 05:16:33;;;;;;;;;;;;;;;23.33;41.88;92221.66;4998794;28;7105;-59
2024/04/01 05:19:09;;;;;;;;;;;;;;;23.31;42.05;92222.19;4997171;28;7112;-57
2024/04/01 05:21:45;;;;;;;;;;;;;;;23.31;42.09;92229.69;4988201;28;9984;-58
2024/04/01 05:24:21;;;;;;;;;;;;;;;23.36;41.74;92245.28;4980356;28;9872;-58
2024/04/01 05:26:49;;;;;;;;;;;;;;;23.36;41.74;92235.00;4996056;28;7241;-58
2024/04/01 05:29:15;;;;;;;;;;;;;;;23.36;42.06;92235.00;4978063;28;7195;-58
2024/04/01 05:31:44;;;;;;;;;;;;;;;23.36;41.84;92248.72;4979981;28;7106;-58
2024/04/01 05:34:10;;;;;;;;;;;;;;;23.35;41.95;92255.50;4988399;28;9513;-58
2024/04/01 05:36:38;;;;;;;;;;;;;;;23.35;42.01;92271.97;4985302;28;8211;-58
2024/04/01 05:39:06;;;;;;;;;;;;;;;23.35;42.36;92266.47;4973418;28;7144;-59
2024/04/01 05:41:42;;;;;;;;;;;;;;;23.31;41.87;92262.59;4998620;28;7051;-57
2024/04/01 05:44:20;;;;;;;;;;;;;;;23.21;42.07;92268.63;5012911;28;7295;-58
2024/04/01 05:46:48;;;;;;;;;;;;;;;23.18;42.56;92297.13;5006105;28;7038;-58
2024/04/01 05:49:16;;;;;;;;;;;;;;;23.30;42.25;92285.81;4978075;28;7177;-58
2024/04/01 05:51:52;;;;;;;;;;;;;;;23.33;42.70;92285.50;5008434;28;7679;-58
2024/04/01 05:54:40;;;;;;;;;;;;;;;23.38;42.31;92281.13;5073177;28;7047;-58
2024/04/01 05:57:14;;;;;;;;;;;;;;;23.34;42.57;92234.84;5066748;28;6998;-58
2024/04/01 05:59:58;;;;;;;;;;;;;;;23.42;42.20;92248.56;5090332;28;9390;-58
2024/04/01 06:02:35;;;;;;;;;;;;;;;23.41;42.27;92283.50;5080530;28;7628;-58
2024/04/01 06:05:22;;;;;;;;;;;;;;;23.38;42.21;92320.25;5072483;28;7311;-58
2024/04/01 06:07:54;;;;;;;;;;;;;;;23.41;42.13;92334.88;5083143;28;7236;-58
2024/04/01 06:10:20;;;;;;;;;;;;;;;23.43;42.34;92310.38;5054574;28;7308;-58
2024/04/01 06:13:17;;;;;;;;;;;;;;;23.39;42.56;92288.06;5078839;28;7100;-58
2024/04/01 06:15:58;;;;;;;;;;;;;;;23.41;42.72;92301.97;5071051;28;7280;-58
2024/04/01 06:18:40;;;;;;;;;;;;;;;23.37;42.52;92276.91;5056629;28;7752;-57
2024/04/01 06:21:07;;;;;;;;;;;;;;;23.39;42.62;92294.28;5066511;28;7057;-60
2024/04/01 06:23:37;;;;;;;;;;;;;;;23.39;43.05;92305.25;5047165;28;7024;-59
2024/04/01 06:26:16;;;;;;;;;;;;;;;23.45;43.18;92307.81;5069636;28;9203;-59
2024/04/01 06:28:50;;;;;;;;;;;;;;;23.50;42.73;92315.16;5074396;28;7007;-60
2024/04/01 06:31:17;;;;;;;;;;;;;;;23.52;42.69;92346.25;5057507;28;7024;-59
2024/04/01 06:33:43;;;;;;;;;;;;;;;23.55;43.00;92347.19;5069087;28;7101;-59
2024/04/01 06:36:12;;;;;;;;;;;;;;;23.56;43.04;92351.38;5062260;28;8067;-59
2024/04/01 06:38:39;;;;;;;;;;;;;;;23.57;43.03;92337.13;5081315;28;7097;-59
2024/04/01 06:41:43;;;;;;;;;;;;;;;23.60;43.00;92365.47;5075412;28;6999;-59
2024/04/01 06:44:29;;;;;;;;;;;;;;;23.55;42.71;92355.41;5028654;28;9780;-59
2024/04/01 06:47:04;;;;;;;;;;;;;;;23.57;42.19;92337.13;4999401;28;7405;-59
2024/04/01 06:50:23;;;;;;;;;;;;;;;23.47;42.23;92357.41;5044271;28;7121;-59
2024/04/01 06:53:06;;;;;;;;;;;;;;;23.39;42.49;92393.03;4954936;28;7052;-59
2024/04/01 06:55:44;;;;;;;;;;;;;;;23.33;42.58;92402.69;4957071;28;6875;-59
2024/04/01 06:58:13;;;;;;;;;;;;;;;23.30;42.80;92418.22;4963724;28;7111;-58
2024/04/01 07:00:57;;;;;;;;;;;;;;;23.38;42.87;92434.75;4948756;28;7085;-58
2024/04/01 07:03:45;;;;;;;;;;;;;;;23.38;43.38;92451.19;4947976;28;6865;-59
2024/04/01 07:06:27;;;;;;;;;;;;;;;23.37;42.97;92452.47;4959326;28;7433;-59
2024/04/01 07:08:58;;;;;;;;;;;;;;;23.40;43.22;92465.09;4954499;28;7119;-59
2024/04/01 07:11:59;;;;;;;;;;;;;;;23.46;42.75;92462.94;4937455;28;7198;-62
2024/04/01 07:15:13;;;;;;;;;;;;;;;23.49;43.16;92465.31;4890546;29;7061;-59
2024/04/01 07:17:39;;;;;;;;;;;;;;;23.50;44.06;92488.00;4838534;29;7294;-60
2024/04/01 07:20:07;;;;;;;;;;;;;;;23.56;44.75;92507.78;4824616;29;9414;-60
2024/04/01 07:22:47;;;;;;;;;;;;;;;23.77;65.51;92508.44;4826581;29;7279;-59
2024/04/01 07:25:13;;;;;;;;;;;;;;;24.24;70.24;92500.53;4825842;29;7102;-59
2024/04/01 07:27:58;;;;;;;;;;;;;;;24.82;70.97;92510.66;4836867;29;9345;-59
2024/04/01 07:30:24;;;;;;;;;;;;;;;25.31;71.78;92532.28;4886799;29;7040;-60
2024/04/01 07:32:50;;;;;;;;;;;;;;;25.65;73.04;92534.59;4894142;29;9013;-59
2024/04/01 07:35:16;;;;;;;;;;;;;;;26.03;72.21;92541.41;4868208;29;7228;-60
2024/04/01 07:37:59;;;;;;;;;;;;;;;26.34;70.80;92546.81;4885822;29;6844;-60
2024/04/01 07:40:26;;;;;;;;;;;;;;;26.59;68.94;92555.84;4891678;29;9085;-60
2024/04/01 07:42:53;;;;;;;;;;;;;;;26.71;67.03;92541.06;4885955;29;10069;-60
2024/04/01 07:45:24;;;;;;;;;;;;;;;26.80;66.08;92525.94;4878437;29;7113;-59
2024/04/01 07:48:27;;;;;;;;;;;;;;;26.88;56.86;92551.47;4879723;29;9814;-59
2024/04/01 07:51:06;;;;;;;;;;;;;;;25.91;44.32;92534.88;4876064;29;7282;-57
2024/04/01 07:53:33;;;;;;;;;;;;;;;25.28;43.72;92541.63;4897755;28;7433;-57
2024/04/01 07:56:01;;;;;;;;;;;;;;;24.79;44.31;92544.78;4973694;28;7324;-57
2024/04/01 07:58:38;;;;;;;;;;;;;;;24.46;44.91;92554.78;4956894;28;9256;-57
2024/04/01 08:01:15;;;;;;;;;;;;;;;24.21;45.12;92556.56;4978791;28;9353;-57
2024/04/01 08:03:42;;;;;;;;;;;;;;;24.16;45.21;92565.72;4941087;28;7675;-56
2024/04/01 08:06:17;;;;;;;;;;;;;;;23.97;45.53;92570.72;4969192;28;7362;-57
2024/04/01 08:08:46;;;;;;;;;;;;;;;23.86;45.41;92577.28;4969814;28;7034;-57
2024/04/01 08:11:22;;;;;;;;;;;;;;;23.84;45.45;92607.28;4978615;28;9470;-57
2024/04/01 08:14:07;;;;;;;;;;;;;;;23.79;45.49;92612.94;4966103;28;7029;-57
2024/04/01 08:16:32;;;;;;;;;;;;;;;23.72;45.76;92617.09;4988203;28;8236;-57
2024/04/01 08:19:00;;;;;;;;;;;;;;;23.69;45.90;92615.44;4976247;28;9187;-57
2024/04/01 08:21:28;;;;;;;;;;;;;;;23.68;46.28;92630.44;4961522;28;7180;-57
2024/04/01 08:24:23;;;;;;;;;;;;;;;23.66;45.84;92637.75;4964582;28;7023;-57
2024/04/01 08:27:09;;;;;;;;;;;;;;;23.63;46.33;92627.84;4989187;28;7939;-57
2024/04/01 08:29:45;;;;;;;;;;;;;;;23.58;45.66;92647.94;4996669;28;9054;-57
2024/04/01 08:32:10;;;;;;;;;;;;;;;23.56;46.08;92645.72;4972967;28;7037;-57
2024/04/01 08:34:39;;;;;;;;;;;;;;;23.57;46.54;92643.72;4973481;28;7040;-57
2024/04/01 08:37:05;;;;;;;;;;;;;;;23.55;46.35;92643.53;4982120;28;7312;-57
2024/04/01 08:39:47;;;;;;;;;;;;;;;23.57;46.61;92671.16;4979063;28;7168;-57
2024/04/01 08:42:30;;;;;;;;;;;;;;;23.52;46.73;92658.31;4981546;28;9084;-57
2024/04/01 08:45:15;;;;;;;;;;;;;;;23.54;47.15;92672.22;4976400;28;7102;-56
2024/04/01 08:48:07;;;;;;;;;;;;;;;23.43;46.93;92667.03;4976296;28;8714;-56
2024/04/01 08:50:59;;;;;;;;;;;;;;;23.60;47.00;92687.28;4999040;28;7238;-57
2024/04/01 08:53:55;;;;;;;;;;;;;;;23.58;46.06;92695.31;4996465;28;7044;-56
2024/04/01 08:56:40;;;;;;;;;;;;;;;23.49;45.26;92695.09;4933857;29;7242;-56
2024/04/01 08:59:38;;;;;;;;;;;;;;;23.46;46.21;92699.63;4920234;29;7074;-57
2024/04/01 09:02:06;;;;;;;;;;;;;;;23.43;46.13;92695.22;4916526;28;7025;-57
2024/04/01 09:04:41;;;;;;;;;;;;;;;23.45;45.64;92702.88;5011705;28;7300;-57
2024/04/01 09:07:16;;;;;;;;;;;;;;;23.35;46.12;92699.91;5006356;28;9512;-59
2024/04/01 09:09:41;;;;;;;;;;;;;;;23.39;45.95;92700.28;5010643;28;7293;-59
2024/04/01 09:12:25;;;;;;;;;;;;;;;23.46;46.57;92724.31;5011188;28;7038;-58
2024/04/01 09:15:10;;;;;;;;;;;;;;;23.60;53.71;92752.41;5013781;28;7026;-60
2024/04/01 09:18:10;;;;;;;;;;;;;;;23.92;54.78;92744.63;4989044;28;9702;-60
2024/04/01 09:20:45;;;;;;;;;;;;;;;24.15;53.76;92739.28;4934051;29;7048;-59
2024/04/01 09:23:26;;;;;;;;;;;;;;;24.33;52.25;92746.53;4932752;29;9555;-60
2024/04/01 09:25:52;;;;;;;;;;;;;;;24.48;45.50;92765.84;4923875;29;7066;-61
2024/04/01 09:28:30;;;;;;;;;;;;;;;24.51;43.63;92754.50;4919836;29;9620;-62
2024/04/01 09:30:59;;;;;;;;;;;;;;;24.51;43.96;92742.78;4936676;28;7273;-57
2024/04/01 09:33:29;;;;;;;;;;;;;;;24.26;43.85;92753.47;4934259;28;7075;-57
2024/04/01 09:35:57;;;;;;;;;;;;;;;23.96;43.47;92766.97;4958132;28;7332;-57
2024/04/01 09:38:23;;;;;;;;;;;;;;;23.83;44.22;92769.81;4952591;28;9201;-57
2024/04/01 09:40:56;;;;;;;;;;;;;;;23.70;44.50;92770.63;4961563;28;7097;-57
2024/04/01 09:43:33;;;;;;;;;;;;;;;23.66;44.62;92777.72;4964757;28;7441;-58
2024/04/01 09:46:03;;;;;;;;;;;;;;;23.65;44.30;92776.97;4944398;28;7113;-58
2024/04/01 09:48:30;;;;;;;;;;;;;;;23.53;44.47;92766.81;4970242;28;7071;-58
2024/04/01 09:50:59;;;;;;;;;;;;;;;23.66;44.94;92799.69;4939283;28;7049;-58
2024/04/01 09:53:28;;;;;;;;;;;;;;;23.55;44.80;92795.19;4963720;28;7080;-58
2024/04/01 10:00:03;;;;;;;;;;;;;;;23.58;44.79;92821.56;5068984;28;7611;-58
2024/04/01 10:03:08;;;;;;;;;;;;;;;23.54;45.08;92812.94;5069110;28;7159;-58
2024/04/01 10:06:01;;;;;;;;;;;;;;;23.57;45.32;92830.34;5069714;28;6884;-58
2024/04/01 10:09:05;;;;;;;;;;;;;;;23.55;45.27;92822.66;5065908;28;7143;-58
2024/04/01 10:11:56;;;;;;;;;;;;;;;23.52;45.74;92814.72;5047755;28;7448;-58
2024/04/01 10:15:08;;;;;;;;;;;;;;;23.52;45.48;92798.25;5055102;28;7277;-58
2024/04/01 10:17:50;;;;;;;;;;;;;;;23.58;45.87;92804.34;5059952;28;7714;-58
2024/04/01 10:20:40;;;;;;;;;;;;;;;23.58;45.67;92801.59;5072214;28;7033;-58
2024/04/01 10:23:30;;;;;;;;;;;;;;;23.66;46.45;92805.16;5057912;28;9726;-58
2024/04/01 10:26:24;;;;;;;;;;;;;;;23.67;46.31;92823.09;5048268;28;8824;-58
2024/04/01 10:29:18;;;;;;;;;;;;;;;23.68;45.66;92846.53;5066886;28;7249;-58
2024/04/01 10:32:12;;;;;;;;;;;;;;;23.67;45.64;92854.03;5056248;28;9154;-58
2024/04/01 10:35:05;;;;;;;;;;;;;;;23.69;45.76;92870.72;5071821;28;7028;-58
2024/04/01 10:38:02;;;;;;;;;;;;;;;23.69;46.12;92864.47;5099672;28;7273;-59
2024/04/01 10:41:25;;;;;;;;;;;;;;;23.68;45.57;92861.00;5069048;28;9092;-59
2024/04/01 10:44:23;;;;;;;;;;;;;;;23.67;45.84;92867.75;5003605;28;7302;-59
2024/04/01 10:47:14;;;;;;;;;;;;;;;23.60;45.99;92862.19;5011219;28;7632;-59
2024/04/01 10:50:16;;;;;;;;;;;;;;;23.67;46.30;92883.50;5011212;28;7269;-58
2024/04/01 10:53:23;;;;;;;;;;;;;;;23.66;46.25;92896.47;5023682;28;7298;-62
2024/04/01 10:55:53;;;;;;;;;;;;;;;23.68;46.08;92893.22;4935981;29;7003;-62
2024/04/01 10:58:57;;;;;;;;;;;;;;;23.68;45.69;92895.94;4935367;28;9068;-61
2024/04/01 11:01:38;;;;;;;;;;;;;;;23.68;46.30;92907.69;4927881;28;9368;-62
2024/04/01 11:04:23;;;;;;;;;;;;;;;23.68;46.39;92912.41;4947431;28;6900;-61
2024/04/01 11:07:06;;;;;;;;;;;;;;;23.69;45.42;92922.13;4941853;28;7082;-63
2024/04/01 11:10:17;;;;;;;;;;;;;;;23.67;45.14;92922.66;4925785;28;7276;-62
2024/04/01 11:13:01;;;;;;;;;;;;;;;23.65;45.15;92943.66;4935033;28;7355;-70
2024/04/01 11:15:42;;;;;;;;;;;;;;;23.56;45.45;92938.63;4926659;28;7015;-62
2024/04/01 11:18:38;;;;;;;;;;;;;;;23.63;46.17;92949.69;4971566;28;7352;-61
2024/04/01 11:21:36;;;;;;;;;;;;;;;23.57;46.00;92948.34;4993312;28;7383;-61
2024/04/01 11:24:47;;;;;;;;;;;;;;;23.56;45.87;92950.34;4994270;28;7033;-61
2024/04/01 11:27:43;;;;;;;;;;;;;;;23.66;45.36;92967.13;4974458;28;6979;-61
2024/04/01 11:30:22;;;;;;;;;;;;;;;23.64;46.05;92967.63;4993297;28;9042;-61
2024/04/01 11:32:57;;;;;;;;;;;;;;;23.65;45.27;92973.88;4998519;28;7274;-61
2024/04/01 11:35:40;;;;;;;;;;;;;;;23.62;45.71;92969.44;4991505;28;7078;-61
2024/04/01 11:39:04;;;;;;;;;;;;;;;23.61;45.13;92976.19;5010492;28;7049;-62
2024/04/01 11:41:48;;;;;;;;;;;;;;;23.54;45.21;92957.63;4976154;28;7220;-61
2024/04/01 11:44:24;;;;;;;;;;;;;;;23.55;44.90;92965.34;5000077;28;9257;-62
2024/04/01 11:46:55;;;;;;;;;;;;;;;23.56;45.55;92968.81;4986720;28;9304;-61
2024/04/01 11:49:50;;;;;;;;;;;;;;;23.56;45.52;92960.56;4996245;28;7444;-62
2024/04/01 11:52:18;;;;;;;;;;;;;;;23.48;45.31;92960.50;4980123;28;9151;-60
2024/04/01 11:55:08;;;;;;;;;;;;;;;23.52;44.80;92971.88;5009689;28;8394;-60
2024/04/01 11:57:35;;;;;;;;;;;;;;;23.48;44.98;92966.00;4989922;28;7040;-61
2024/04/01 12:00:06;;;;;;;;;;;;;;;23.54;45.13;92974.84;5000415;28;6956;-60
2024/04/01 12:02:33;;;;;;;;;;;;;;;23.50;44.93;92981.91;5005899;28;7054;-56
2024/04/01 12:05:07;;;;;;;;;;;;;;;23.52;44.69;92985.63;5002445;28;7240;-56
2024/04/01 12:07:33;;;;;;;;;;;;;;;23.50;44.89;92996.38;5044648;28;7014;-56
2024/04/01 12:10:06;;;;;;;;;;;;;;;23.48;44.96;92987.19;5046890;28;9138;-56
2024/04/01 12:12:38;;;;;;;;;;;;;;;23.53;45.31;93003.53;5073533;28;9766;-56
2024/04/01 12:15:05;;;;;;;;;;;;;;;23.58;45.24;93004.69;5051017;28;7216;-56
2024/04/01 12:17:32;;;;;;;;;;;;;;;23.54;45.21;93001.53;5070130;28;7030;-57
2024/04/01 12:20:05;;;;;;;;;;;;;;;23.49;44.97;92989.41;5080191;28;7099;-57
2024/04/01 12:22:32;;;;;;;;;;;;;;;23.58;44.62;93002.69;5057997;28;7002;-57
2024/04/01 12:25:03;;;;;;;;;;;;;;;23.50;44.80;92987.41;5080162;28;9078;-57
2024/04/01 12:27:33;;;;;;;;;;;;;;;23.55;44.31;92998.28;5070998;28;9377;-57
2024/04/01 12:30:09;;;;;;;;;;;;;;;23.55;44.14;92992.78;5055179;28;8201;-57
2024/04/01 12:32:43;;;;;;;;;;;;;;;23.54;43.93;92996.06;5075132;28;7289;-56
2024/04/01 12:35:14;;;;;;;;;;;;;;;23.51;44.90;93008.81;5049903;28;7266;-56
2024/04/01 12:37:43;;;;;;;;;;;;;;;23.55;44.71;93011.25;5087621;28;7440;-56
2024/04/01 12:40:18;;;;;;;;;;;;;;;23.55;44.60;93008.50;5071924;28;7268;-56
2024/04/01 12:42:59;;;;;;;;;;;;;;;23.54;44.96;93013.25;5070919;28;7193;-56
2024/04/01 12:45:25;;;;;;;;;;;;;;;23.56;44.67;93010.72;5073538;28;7594;-56
2024/04/01 12:47:52;;;;;;;;;;;;;;;23.52;44.79;93004.81;5083280;28;7114;-56
2024/04/01 12:50:34;;;;;;;;;;;;;;;23.55;44.73;93016.75;5070077;28;9514;-56
2024/04/01 12:53:32;;;;;;;;;;;;;;;23.61;44.90;93018.13;5065704;28;9454;-56
2024/04/01 12:56:16;;;;;;;;;;;;;;;23.55;44.68;93003.03;4970064;28;9421;-56
2024/04/01 12:59:04;;;;;;;;;;;;;;;23.60;45.25;93010.38;4992714;28;8815;-56
2024/04/01 13:01:55;;;;;;;;;;;;;;;23.59;44.74;93003.44;4981392;28;7232;-56
2024/04/01 13:04:23;;;;;;;;;;;;;;;23.58;43.98;93004.69;4991630;28;6906;-56
2024/04/01 13:07:07;;;;;;;;;;;;;;;23.60;43.77;93015.88;4995392;28;7046;-56
2024/04/01 13:09:43;;;;;;;;;;;;;;;23.53;43.77;93011.78;4960044;28;7060;-56
2024/04/01 13:12:51;;;;;;;;;;;;;;;23.59;43.81;93006.19;4977574;28;9138;-61
2024/04/01 13:15:33;;;;;;;;;;;;;;;23.54;43.55;93007.03;4957078;28;9028;-61
2024/04/01 13:18:35;;;;;;;;;;;;;;;23.56;43.89;93007.97;4963102;28;6961;-61
2024/04/01 13:21:29;;;;;;;;;;;;;;;23.61;44.08;93018.13;4952718;28;7043;-61
2024/04/01 13:24:21;;;;;;;;;;;;;;;23.60;43.58;93013.13;4958258;28;8706;-61
2024/04/01 13:27:26;;;;;;;;;;;;;;;23.64;43.86;93028.00;4971978;28;7608;-61
2024/04/01 13:30:05;;;;;;;;;;;;;;;23.62;44.37;93033.28;4965209;28;9513;-61
2024/04/01 13:32:49;;;;;;;;;;;;;;;23.60;44.31;93029.59;5008231;28;7035;-61
2024/04/01 13:35:41;;;;;;;;;;;;;;;23.65;44.51;93031.50;5033305;28;7085;-61
2024/04/01 13:38:13;;;;;;;;;;;;;;;23.63;44.55;93032.03;5031617;28;7115;-61
2024/04/01 13:41:01;;;;;;;;;;;;;;;23.65;44.37;93028.75;5030185;28;9325;-60
2024/04/01 13:43:51;;;;;;;;;;;;;;;23.64;44.44;93024.56;5042372;28;7042;-61
2024/04/01 13:46:34;;;;;;;;;;;;;;;23.65;44.26;93031.50;5036321;28;7246;-60
2024/04/01 13:49:32;;;;;;;;;;;;;;;23.58;44.76;93026.66;5043930;28;7609;-61
2024/04/01 13:52:55;;;;;;;;;;;;;;;23.65;44.61;93051.47;5080187;28;7339;-60
2024/04/01 13:55:55;;;;;;;;;;;;;;;23.68;43.92;93060.66;5090867;28;6950;-60
2024/04/01 13:58:49;;;;;;;;;;;;;;;23.69;44.26;93064.84;5088266;28;7122;-60
2024/04/01 14:01:24;;;;;;;;;;;;;;;23.61;44.12;93064.78;5070471;28;7042;-60
2024/04/01 14:04:34;;;;;;;;;;;;;;;23.66;45.08;93074.16;5082898;28;7212;-60